Terminal Aerodrome Forecast
Issued by NWS

Home | Current Version | Previous Version | Text Only | Print | Product List | Glossary On
Versions: 1 2 3 4 5 6 7 8 9 10 11 12 13 14 15 16
000
FTUS45 KVEF 261100
TAFVGT
TAF
KVGT 261127Z 2612/2712 20008KT P6SM FEW150 BKN250
     FM261800 15010KT P6SM FEW150 BKN250
     FM262100 17010KT P6SM SCT100 SCT150 BKN250
     FM270400 VRB05KT P6SM SCT150 BKN250=

USA.gov is the U.S. government's official web portal to all federal, state and local government web resources and services.